Time;durP1;ratioP1;P1;durP2;ratioP2;P2;SDS_P1;SDS_P2;PMS_P1;PMS_P2;Temp;Humidity;BMP_temperature;BMP_pressure;BME280_temperature;BME280_humidity;BME280_pressure;Samples;Min_cycle;Max_cycle;Signal;HPM_P1;HPM_P2
2022/01/13 00:01:28;;;;;;;10.18;9.20;;;22.40;42.90;;;;;;4996474;28;20667;-68
2022/01/13 00:03:54;;;;;;;12.82;11.55;;;22.50;43.00;;;;;;5012585;28;20203;-68
2022/01/13 00:06:20;;;;;;;15.52;14.13;;;22.40;42.80;;;;;;4996066;28;20211;-68
2022/01/13 00:08:45;;;;;;;12.30;11.25;;;22.40;42.80;;;;;;5012680;28;20222;-68
2022/01/13 00:11:11;;;;;;;15.13;13.73;;;22.40;42.80;;;;;;5013703;28;20177;-67
2022/01/13 00:14:10;;;;;;;15.05;13.55;;;22.40;42.80;;;;;;5012586;28;20254;-68
2022/01/13 00:19:21;;;;;;;12.05;11.02;;;22.40;42.80;;;;;;5012868;28;20184;-68
2022/01/13 00:22:02;;;;;;;13.43;12.13;;;22.40;42.80;;;;;;5012156;28;20172;-68
2022/01/13 00:24:28;;;;;;;13.18;11.98;;;22.40;42.80;;;;;;5013117;28;20303;-67
2022/01/13 00:26:55;;;;;;;13.13;11.95;;;22.40;42.80;;;;;;5012224;28;20275;-68
2022/01/13 00:29:28;;;;;;;12.93;11.82;;;22.40;42.80;;;;;;5012421;28;20196;-68
2022/01/13 00:31:54;;;;;;;14.35;13.05;;;22.40;42.70;;;;;;5012025;28;20176;-68
2022/01/13 00:34:20;;;;;;;14.60;13.30;;;22.40;42.70;;;;;;5011638;28;20191;-68
2022/01/13 00:36:46;;;;;;;15.05;13.75;;;22.40;42.70;;;;;;4995967;28;20661;-68
2022/01/13 00:39:14;;;;;;;14.23;12.93;;;22.40;42.60;;;;;;5028424;28;20231;-68
2022/01/13 00:41:40;;;;;;;14.75;13.45;;;22.40;42.60;;;;;;5011938;28;20655;-68
2022/01/13 00:44:08;;;;;;;14.65;13.38;;;22.40;42.70;;;;;;5011947;28;20200;-68
2022/01/13 00:46:44;;;;;;;12.85;11.75;;;22.40;42.60;;;;;;5011873;28;20224;-68
2022/01/13 00:49:15;;;;;;;13.23;12.07;;;22.40;42.60;;;;;;5011720;28;20180;-68
2022/01/13 00:51:42;;;;;;;12.02;10.93;;;22.40;42.60;;;;;;5028226;28;20192;-67
2022/01/13 00:54:09;;;;;;;12.07;11.07;;;22.40;42.60;;;;;;5028392;28;20200;-68
2022/01/13 00:56:37;;;;;;;12.63;11.43;;;22.40;42.60;;;;;;4995783;28;20190;-68
2022/01/13 00:59:07;;;;;;;12.70;11.60;;;22.40;42.60;;;;;;4995373;28;20263;-67
2022/01/13 01:01:38;;;;;;;12.98;11.75;;;22.40;42.60;;;;;;5011606;28;20199;-67
2022/01/13 01:04:05;;;;;;;12.27;11.18;;;22.40;42.50;;;;;;5011592;28;20215;-68
2022/01/13 01:06:32;;;;;;;11.40;10.40;;;22.40;42.50;;;;;;5027776;28;20275;-68
2022/01/13 01:08:59;;;;;;;11.23;10.32;;;22.40;42.50;;;;;;4995118;28;20242;-68
2022/01/13 01:11:26;;;;;;;11.98;10.88;;;22.40;42.50;;;;;;5028011;28;20195;-67
2022/01/13 01:13:55;;;;;;;11.95;10.85;;;22.40;42.60;;;;;;5011745;28;20200;-68
2022/01/13 01:16:22;;;;;;;13.10;12.00;;;22.40;42.50;;;;;;4994888;28;20659;-68
2022/01/13 01:27:18;;;;;;;10.50;9.60;;;22.30;42.30;;;;;;4970979;28;20217;-73
2022/01/13 01:31:51;;;;;;;10.23;9.32;;;22.40;42.40;;;;;;4975944;28;20277;-72
2022/01/13 01:34:36;;;;;;;11.10;10.13;;;22.40;42.40;;;;;;5008722;28;20201;-72
2022/01/13 01:37:02;;;;;;;10.40;9.60;;;22.30;42.30;;;;;;4995114;28;20288;-73
2022/01/13 01:39:28;;;;;;;9.98;9.18;;;22.40;42.30;;;;;;4995243;28;20184;-73
2022/01/13 01:41:56;;;;;;;10.50;9.65;;;22.40;42.30;;;;;;4995368;28;20192;-73
2022/01/13 01:44:32;;;;;;;10.55;9.60;;;22.30;42.30;;;;;;4994949;28;20553;-72
2022/01/13 01:47:00;;;;;;;11.07;10.05;;;22.40;42.30;;;;;;4996848;28;20184;-73
2022/01/13 01:49:27;;;;;;;11.40;10.40;;;22.40;42.20;;;;;;4996784;28;20243;-73
2022/01/13 01:51:57;;;;;;;10.27;9.38;;;22.40;42.30;;;;;;4995685;28;20193;-73
2022/01/13 01:54:25;;;;;;;9.98;9.18;;;22.30;42.20;;;;;;4995190;28;20227;-72
2022/01/13 01:56:51;;;;;;;10.50;9.55;;;22.40;42.30;;;;;;4995532;28;20180;-72
2022/01/13 01:59:21;;;;;;;9.18;8.48;;;22.30;42.00;;;;;;4979343;28;20188;-73
2022/01/13 02:01:49;;;;;;;9.30;8.50;;;22.30;42.10;;;;;;4995514;28;20239;-73
2022/01/13 02:04:18;;;;;;;9.05;8.35;;;22.30;42.20;;;;;;4995192;28;20304;-72
2022/01/13 02:06:44;;;;;;;8.93;8.23;;;22.30;42.30;;;;;;4995374;28;20717;-72
2022/01/13 02:09:14;;;;;;;9.05;8.25;;;22.30;42.20;;;;;;4995113;28;20181;-72
2022/01/13 02:11:47;;;;;;;10.25;9.35;;;22.30;42.10;;;;;;4996349;28;20176;-72
2022/01/13 02:17:09;;;;;;;9.15;8.35;;;22.30;42.10;;;;;;4995043;28;20177;-72
2022/01/13 02:19:39;;;;;;;9.25;8.45;;;22.40;42.10;;;;;;4995114;28;20181;-73
2022/01/13 02:22:06;;;;;;;8.95;8.15;;;22.30;42.00;;;;;;4994910;28;20213;-72
2022/01/13 02:24:32;;;;;;;9.18;8.38;;;22.30;42.00;;;;;;4996015;28;20318;-72
2022/01/13 02:26:59;;;;;;;9.27;8.48;;;22.30;41.90;;;;;;4978554;28;20220;-73
2022/01/13 02:29:24;;;;;;;9.35;8.52;;;22.30;41.90;;;;;;4995167;28;20271;-73
2022/01/13 02:31:51;;;;;;;8.55;7.82;;;22.30;41.90;;;;;;4994686;28;20271;-73
2022/01/13 02:34:19;;;;;;;8.80;8.00;;;22.30;41.90;;;;;;4994486;28;20204;-72
2022/01/13 02:36:48;;;;;;;7.80;7.20;;;22.30;41.80;;;;;;4994581;28;20664;-73
2022/01/13 02:39:14;;;;;;;8.00;7.30;;;22.30;41.90;;;;;;4978486;28;20185;-73
2022/01/13 02:41:40;;;;;;;8.30;7.60;;;22.30;42.00;;;;;;4993827;28;20185;-73
2022/01/13 02:44:15;;;;;;;8.20;7.40;;;22.30;41.90;;;;;;4995866;28;20203;-73
2022/01/13 02:49:13;;;;;;;7.90;7.30;;;22.30;41.90;;;;;;4994341;28;20200;-73
2022/01/13 02:51:42;;;;;;;7.93;7.22;;;22.30;41.90;;;;;;4994418;28;20200;-72
2022/01/13 02:54:09;;;;;;;7.70;7.10;;;22.30;41.80;;;;;;4994225;28;20201;-73
2022/01/13 02:56:36;;;;;;;7.70;7.00;;;22.30;41.90;;;;;;4995349;28;20182;-73
2022/01/13 02:59:03;;;;;;;7.85;7.25;;;22.30;41.90;;;;;;4994227;28;20567;-73
2022/01/13 03:01:29;;;;;;;8.20;7.50;;;22.30;41.80;;;;;;4994223;28;20185;-72
2022/01/13 03:03:55;;;;;;;8.15;7.50;;;22.30;41.80;;;;;;4994317;28;20625;-72
2022/01/13 03:06:31;;;;;;;8.45;7.75;;;22.30;41.80;;;;;;4993896;28;20256;-73
2022/01/13 03:08:57;;;;;;;7.50;6.80;;;22.30;41.80;;;;;;4994251;28;20173;-73
2022/01/13 03:11:30;;;;;;;7.32;6.72;;;22.30;41.70;;;;;;4994133;28;20180;-73
2022/01/13 03:13:57;;;;;;;7.95;7.25;;;22.30;41.80;;;;;;4994255;28;20247;-73
2022/01/13 03:16:23;;;;;;;7.10;6.50;;;22.30;41.70;;;;;;4993869;28;20185;-73
2022/01/13 03:18:49;;;;;;;7.28;6.68;;;22.30;41.80;;;;;;4995061;28;20185;-72
2022/01/13 03:21:15;;;;;;;6.32;5.82;;;22.30;41.80;;;;;;4994046;28;20216;-73
2022/01/13 03:23:41;;;;;;;7.13;6.53;;;22.30;41.70;;;;;;4977583;28;20217;-72
2022/01/13 03:26:08;;;;;;;6.68;6.18;;;22.30;41.80;;;;;;4994076;28;20226;-72
2022/01/13 03:28:51;;;;;;;7.25;6.65;;;22.30;41.70;;;;;;4993391;28;20200;-73
2022/01/13 03:31:20;;;;;;;6.65;6.15;;;22.30;41.70;;;;;;4992091;28;20208;-72
2022/01/13 03:33:46;;;;;;;6.57;5.97;;;22.30;41.70;;;;;;4993299;28;20218;-73
2022/01/13 03:36:11;;;;;;;6.90;6.30;;;22.30;41.70;;;;;;4973840;28;20189;-72
2022/01/13 03:38:38;;;;;;;6.72;6.22;;;22.30;41.60;;;;;;4974153;28;20193;-72
2022/01/13 03:41:04;;;;;;;7.00;6.40;;;22.30;41.60;;;;;;4982093;28;20185;-72
2022/01/13 03:43:31;;;;;;;6.82;6.22;;;22.30;41.60;;;;;;4976913;28;20204;-72
2022/01/13 03:45:58;;;;;;;7.40;6.80;;;22.30;41.60;;;;;;4994167;28;20205;-72
2022/01/13 03:48:24;;;;;;;7.57;6.95;;;22.30;41.60;;;;;;4993403;28;20185;-73
2022/01/13 03:50:49;;;;;;;7.05;6.45;;;22.30;41.50;;;;;;4993333;28;20181;-72
2022/01/13 03:53:30;;;;;;;6.95;6.35;;;22.30;41.50;;;;;;4992016;28;20244;-72
2022/01/13 03:56:49;;;;;;;6.07;5.65;;;22.30;41.60;;;;;;4977124;28;20243;-72
2022/01/13 03:59:36;;;;;;;6.57;6.07;;;22.30;41.60;;;;;;4993565;28;20193;-73
2022/01/13 04:02:12;;;;;;;6.63;6.13;;;22.30;41.60;;;;;;4994430;28;20181;-72
2022/01/13 04:04:48;;;;;;;7.20;6.60;;;22.30;41.50;;;;;;4976644;28;20220;-73
2022/01/13 04:07:16;;;;;;;6.30;5.80;;;22.30;41.50;;;;;;4993061;28;20179;-72
2022/01/13 04:09:42;;;;;;;6.65;6.13;;;22.30;41.50;;;;;;4992778;28;20235;-72
2022/01/13 04:12:12;;;;;;;6.72;6.22;;;22.30;41.50;;;;;;4976624;28;20193;-72
2022/01/13 04:17:18;;;;;;;5.57;5.18;;;22.20;41.30;;;;;;4992945;28;20191;-73
2022/01/13 04:19:45;;;;;;;5.97;5.55;;;22.20;41.20;;;;;;4992851;28;20173;-72
2022/01/13 04:22:13;;;;;;;5.63;5.22;;;22.30;41.50;;;;;;4976518;28;20279;-72
2022/01/13 04:24:45;;;;;;;6.03;5.53;;;22.20;41.40;;;;;;4992216;28;20263;-73
2022/01/13 04:27:21;;;;;;;6.07;5.60;;;22.20;41.30;;;;;;4992649;28;20188;-73
2022/01/13 04:29:49;;;;;;;6.28;5.68;;;22.20;41.40;;;;;;4992380;28;20243;-72
2022/01/13 04:32:15;;;;;;;5.95;5.45;;;22.20;41.40;;;;;;4976134;28;20196;-72
2022/01/13 04:34:41;;;;;;;6.10;5.50;;;22.20;41.40;;;;;;4992220;28;20196;-72
2022/01/13 04:37:07;;;;;;;6.05;5.55;;;22.20;41.40;;;;;;4992724;28;20185;-72
2022/01/13 04:39:33;;;;;;;6.03;5.53;;;22.20;41.40;;;;;;4992415;28;20196;-72
2022/01/13 04:41:58;;;;;;;6.22;5.72;;;22.20;41.20;;;;;;4993578;28;20193;-73
2022/01/13 04:44:26;;;;;;;6.18;5.65;;;22.20;41.30;;;;;;4976075;28;20208;-72
2022/01/13 04:46:54;;;;;;;6.45;5.93;;;22.20;41.20;;;;;;4992195;28;20176;-72
2022/01/13 04:49:21;;;;;;;6.28;5.78;;;22.20;41.40;;;;;;4992187;28;20188;-72
2022/01/13 04:51:50;;;;;;;6.28;5.75;;;22.20;41.30;;;;;;4976254;28;20177;-73
2022/01/13 04:54:17;;;;;;;6.60;6.03;;;22.20;41.30;;;;;;4993206;28;20263;-72
2022/01/13 04:57:06;;;;;;;6.50;5.95;;;22.20;41.00;;;;;;4975891;28;20691;-72
2022/01/13 04:59:29;;;;;;;5.47;5.07;;;22.20;41.10;;;;;;4991703;28;20335;-72
2022/01/13 05:01:55;;;;;;;5.22;4.72;;;22.20;41.30;;;;;;4992279;28;20184;-73
2022/01/13 05:04:22;;;;;;;5.05;4.65;;;22.20;41.20;;;;;;4991583;28;20216;-72
2022/01/13 05:06:47;;;;;;;5.32;4.93;;;22.20;41.30;;;;;;4991952;28;20676;-73
2022/01/13 05:09:13;;;;;;;5.70;5.22;;;22.20;41.20;;;;;;4992060;28;20189;-73
2022/01/13 05:11:39;;;;;;;5.18;4.78;;;22.20;41.20;;;;;;4992128;28;20181;-73
2022/01/13 05:14:05;;;;;;;4.88;4.47;;;22.20;41.20;;;;;;4991866;28;20209;-73
2022/01/13 05:17:34;;;;;;;5.40;4.97;;;22.20;41.20;;;;;;4975802;28;20192;-73
2022/01/13 05:19:25;;;;;;;6.45;5.90;;;22.20;41.10;;;;;;4986327;28;20227;-73
2022/01/13 05:24:23;;;;;;;5.97;5.47;;;22.20;41.10;;;;;;4991327;28;20243;-72
2022/01/13 05:26:49;;;;;;;5.85;5.35;;;22.20;41.00;;;;;;4991880;28;20176;-73
2022/01/13 05:29:19;;;;;;;5.95;5.45;;;22.20;41.20;;;;;;4992121;28;20169;-72
2022/01/13 05:31:45;;;;;;;6.38;5.78;;;22.20;40.90;;;;;;4991699;28;20242;-72
2022/01/13 05:34:11;;;;;;;5.82;5.32;;;22.20;40.90;;;;;;4975385;28;20236;-71
2022/01/13 05:36:37;;;;;;;5.90;5.40;;;22.20;41.10;;;;;;4991271;28;20220;-72
2022/01/13 05:39:03;;;;;;;4.82;4.43;;;22.20;41.00;;;;;;4991848;28;20234;-72
2022/01/13 05:41:31;;;;;;;5.20;4.80;;;22.10;41.00;;;;;;4975438;28;20189;-75
2022/01/13 05:43:58;;;;;;;5.45;4.82;;;22.10;41.10;;;;;;4991508;28;20216;-75
2022/01/13 05:46:23;;;;;;;5.07;4.68;;;22.20;41.20;;;;;;4992459;28;20205;-75
2022/01/13 05:48:50;;;;;;;5.75;5.25;;;22.20;41.00;;;;;;4992714;28;20192;-75
2022/01/13 05:51:16;;;;;;;5.25;4.85;;;22.20;41.00;;;;;;4991631;28;20220;-75
2022/01/13 05:53:42;;;;;;;6.03;5.53;;;22.20;40.90;;;;;;4991543;28;20229;-73
2022/01/13 05:56:09;;;;;;;5.55;5.05;;;22.20;41.00;;;;;;4991476;28;20227;-73
2022/01/13 05:58:35;;;;;;;5.20;4.80;;;22.20;41.10;;;;;;4991617;28;20207;-74
2022/01/13 06:01:01;;;;;;;5.40;5.00;;;22.10;41.00;;;;;;4991710;28;20570;-72
2022/01/13 06:03:26;;;;;;;5.75;5.25;;;22.10;40.90;;;;;;4975189;28;20213;-72
2022/01/13 06:05:52;;;;;;;5.97;5.47;;;22.10;40.90;;;;;;4969840;28;20267;-72
2022/01/13 06:08:18;;;;;;;5.93;5.43;;;22.10;40.90;;;;;;4971909;28;20723;-72
2022/01/13 06:10:46;;;;;;;6.00;5.50;;;22.10;40.90;;;;;;4993681;28;20184;-72
2022/01/13 06:13:13;;;;;;;6.75;6.15;;;22.10;40.90;;;;;;4994612;28;20240;-73
2022/01/13 06:15:39;;;;;;;6.82;6.22;;;22.10;40.80;;;;;;4971742;28;20194;-71
2022/01/13 06:18:13;;;;;;;6.28;5.70;;;22.10;40.80;;;;;;4977877;28;20190;-72
2022/01/13 06:20:39;;;;;;;6.95;6.35;;;22.10;40.80;;;;;;4985004;28;20204;-72
2022/01/13 06:23:07;;;;;;;6.47;5.97;;;22.10;40.70;;;;;;4977917;28;20313;-72
2022/01/13 06:25:35;;;;;;;5.35;4.95;;;22.10;40.70;;;;;;4974489;28;20225;-72
2022/01/13 06:28:02;;;;;;;6.18;5.57;;;22.10;40.80;;;;;;4975054;28;20185;-72
2022/01/13 06:30:30;;;;;;;5.95;5.45;;;22.10;40.80;;;;;;4975208;28;20245;-72
2022/01/13 06:32:56;;;;;;;5.05;4.65;;;22.10;40.80;;;;;;4974685;28;20288;-72
2022/01/13 06:35:22;;;;;;;5.78;5.18;;;22.10;40.80;;;;;;4974677;28;20248;-72
2022/01/13 06:37:48;;;;;;;5.70;5.22;;;22.10;40.80;;;;;;4958758;28;20252;-72
2022/01/13 06:40:15;;;;;;;5.95;5.45;;;22.10;40.70;;;;;;4975877;28;20222;-72
2022/01/13 06:42:41;;;;;;;5.65;5.25;;;22.10;40.80;;;;;;4958481;28;20206;-72
2022/01/13 06:45:13;;;;;;;5.95;5.45;;;22.10;40.70;;;;;;4974410;28;20231;-72
2022/01/13 06:47:40;;;;;;;5.75;5.25;;;22.10;40.70;;;;;;4958619;28;20194;-72
2022/01/13 06:50:08;;;;;;;5.93;5.40;;;22.10;40.70;;;;;;4974409;28;20188;-72
2022/01/13 06:52:35;;;;;;;6.18;5.68;;;22.10;40.70;;;;;;4958377;28;20217;-72
2022/01/13 06:55:01;;;;;;;6.80;6.15;;;22.10;40.70;;;;;;4974288;28;20192;-72
2022/01/13 06:57:26;;;;;;;8.35;7.55;;;22.10;40.80;;;;;;4990525;28;20201;-72
2022/01/13 06:59:52;;;;;;;8.18;7.47;;;22.10;40.70;;;;;;4971855;28;20276;-72
2022/01/13 07:02:19;;;;;;;8.20;7.40;;;22.10;40.70;;;;;;4991756;28;20199;-72
2022/01/13 07:04:45;;;;;;;8.57;7.78;;;22.10;40.70;;;;;;4993242;28;20217;-72
2022/01/13 07:07:11;;;;;;;7.93;7.22;;;22.10;40.50;;;;;;4977271;28;20187;-72
2022/01/13 07:09:37;;;;;;;7.20;6.60;;;22.10;40.70;;;;;;4975528;28;20187;-72
2022/01/13 07:12:03;;;;;;;8.23;7.43;;;22.10;40.60;;;;;;4993603;28;20208;-72
2022/01/13 07:14:29;;;;;;;7.80;7.10;;;22.10;40.60;;;;;;4966911;28;20205;-72
2022/01/13 07:16:55;;;;;;;8.27;7.53;;;22.10;40.50;;;;;;4993522;28;20189;-72
2022/01/13 07:19:21;;;;;;;8.18;7.47;;;22.10;40.60;;;;;;4975039;28;20185;-72
2022/01/13 07:21:47;;;;;;;7.75;7.05;;;22.10;40.60;;;;;;4992615;28;20191;-72
2022/01/13 07:24:13;;;;;;;7.57;6.82;;;22.10;40.60;;;;;;5014112;23;20256;-73
2022/01/13 07:26:39;;;;;;;6.90;6.30;;;22.10;40.70;;;;;;4977283;28;20255;-75
2022/01/13 07:29:07;;;;;;;7.35;6.72;;;22.10;40.70;;;;;;5010188;28;20219;-75
2022/01/13 07:31:34;;;;;;;7.55;6.85;;;22.10;40.60;;;;;;4990455;28;20224;-75
2022/01/13 07:34:00;;;;;;;7.22;6.53;;;22.10;40.60;;;;;;4982518;28;20220;-75
2022/01/13 07:36:26;;;;;;;7.43;6.72;;;22.10;40.60;;;;;;4993647;28;20188;-75
2022/01/13 07:38:52;;;;;;;7.53;6.85;;;22.10;40.60;;;;;;4993811;28;20238;-75
2022/01/13 07:41:17;;;;;;;7.55;6.95;;;22.10;40.60;;;;;;4993398;28;20197;-75
2022/01/13 07:43:47;;;;;;;7.13;6.53;;;22.10;40.50;;;;;;5008619;28;20212;-75
2022/01/13 07:46:13;;;;;;;7.13;6.43;;;22.10;40.60;;;;;;4994418;28;20205;-75
2022/01/13 07:48:39;;;;;;;7.95;7.25;;;22.10;40.50;;;;;;4989527;28;20201;-75
2022/01/13 07:51:06;;;;;;;8.00;7.30;;;22.10;40.50;;;;;;4983665;28;20185;-75
2022/01/13 07:53:32;;;;;;;7.82;7.13;;;22.10;40.50;;;;;;5008320;28;20211;-75
2022/01/13 07:55:57;;;;;;;9.02;7.85;;;22.10;40.50;;;;;;4990564;28;20248;-74
2022/01/13 07:58:23;;;;;;;9.00;8.10;;;22.10;40.50;;;;;;5009597;28;20624;-75
2022/01/13 08:00:49;;;;;;;8.85;7.95;;;22.10;40.50;;;;;;4992989;28;20199;-75
2022/01/13 08:03:15;;;;;;;8.90;8.10;;;22.10;40.50;;;;;;5009465;28;20215;-75
2022/01/13 08:05:40;;;;;;;8.55;7.75;;;22.10;40.40;;;;;;4976055;28;20214;-74
2022/01/13 08:08:06;;;;;;;9.05;8.20;;;22.10;40.50;;;;;;4973732;28;20240;-75
2022/01/13 08:10:32;;;;;;;8.32;7.63;;;22.10;40.40;;;;;;4976947;28;20194;-75
2022/01/13 08:12:58;;;;;;;10.02;9.13;;;22.10;40.30;;;;;;4973914;28;20188;-74
2022/01/13 08:15:24;;;;;;;8.80;8.00;;;22.10;40.20;;;;;;4973572;28;20193;-75
2022/01/13 08:20:34;;;;;;;7.82;7.13;;;22.10;40.50;;;;;;4979766;28;20216;-75
2022/01/13 08:23:01;;;;;;;8.02;7.22;;;22.10;40.50;;;;;;5009234;28;20193;-75
2022/01/13 08:25:28;;;;;;;9.15;8.25;;;22.10;40.50;;;;;;4976325;28;20208;-75
2022/01/13 08:27:54;;;;;;;9.55;8.60;;;22.10;40.50;;;;;;4993860;28;20176;-75
2022/01/13 08:30:20;;;;;;;8.38;7.60;;;22.10;40.40;;;;;;5008296;28;20188;-75
2022/01/13 08:32:46;;;;;;;9.13;8.23;;;22.10;40.50;;;;;;4976152;28;20195;-74
2022/01/13 08:35:13;;;;;;;8.52;7.72;;;22.10;40.40;;;;;;5007567;28;20192;-75
2022/01/13 08:37:39;;;;;;;8.45;7.68;;;22.10;40.50;;;;;;4974003;28;20201;-75
2022/01/13 08:40:11;;;;;;;8.95;8.15;;;22.10;40.50;;;;;;4979362;28;20205;-74
2022/01/13 08:42:37;;;;;;;9.10;8.30;;;22.10;40.50;;;;;;4993575;28;20259;-75
2022/01/13 08:45:06;;;;;;;10.18;9.18;;;22.10;40.50;;;;;;4992523;28;20227;-75
2022/01/13 08:47:32;;;;;;;9.00;8.20;;;22.10;40.50;;;;;;4976226;28;20247;-75
2022/01/13 08:49:58;;;;;;;8.82;8.05;;;22.10;40.40;;;;;;4992023;28;20224;-75
2022/01/13 08:52:24;;;;;;;9.70;8.80;;;22.10;40.50;;;;;;4992260;28;20191;-75
2022/01/13 08:54:55;;;;;;;9.73;8.82;;;22.10;40.50;;;;;;5008563;28;20209;-75
2022/01/13 08:57:22;;;;;;;9.07;8.27;;;22.10;40.40;;;;;;4992096;28;20192;-75
2022/01/13 08:59:48;;;;;;;8.43;7.63;;;22.10;41.20;;;;;;5008099;28;20648;-74
2022/01/13 09:02:14;;;;;;;8.50;7.70;;;22.10;40.50;;;;;;5007581;28;20335;-75
2022/01/13 09:04:40;;;;;;;8.63;7.82;;;22.10;40.60;;;;;;5008411;28;20292;-75
2022/01/13 09:07:06;;;;;;;8.60;7.80;;;22.10;40.60;;;;;;4976145;28;20189;-75
2022/01/13 09:09:32;;;;;;;7.95;7.15;;;22.20;40.70;;;;;;4991785;28;20189;-75
2022/01/13 09:11:58;;;;;;;8.45;7.65;;;22.20;40.70;;;;;;4995198;28;20191;-75
2022/01/13 09:14:25;;;;;;;8.27;7.43;;;22.20;40.70;;;;;;5010994;28;20219;-75
2022/01/13 09:16:52;;;;;;;7.07;6.40;;;22.20;40.70;;;;;;5010308;28;20597;-75
2022/01/13 09:19:19;;;;;;;7.80;7.10;;;22.20;40.80;;;;;;5011123;28;20234;-74
2022/01/13 09:21:47;;;;;;;6.93;6.32;;;22.20;40.80;;;;;;5011103;28;20196;-75
2022/01/13 09:24:19;;;;;;;7.53;6.93;;;22.20;40.80;;;;;;5008108;28;20213;-73
2022/01/13 09:26:45;;;;;;;7.03;6.32;;;22.20;40.80;;;;;;4992975;28;20215;-75
2022/01/13 09:29:13;;;;;;;7.38;6.68;;;22.20;40.80;;;;;;5010405;28;20181;-75
2022/01/13 09:31:42;;;;;;;6.88;6.28;;;22.20;40.90;;;;;;5008589;28;20191;-75
2022/01/13 09:34:09;;;;;;;6.47;5.97;;;22.20;40.90;;;;;;5022491;28;20299;-75
2022/01/13 09:36:37;;;;;;;7.13;6.43;;;22.20;40.90;;;;;;4991571;28;20192;-75
2022/01/13 09:39:06;;;;;;;6.63;6.10;;;22.20;40.90;;;;;;4991839;28;20184;-75
2022/01/13 09:41:33;;;;;;;6.57;6.00;;;22.20;40.90;;;;;;4991178;28;20185;-75
2022/01/13 09:44:04;;;;;;;8.35;7.55;;;22.20;41.00;;;;;;5014595;28;20232;-75
2022/01/13 09:46:31;;;;;;;6.82;6.13;;;22.30;41.10;;;;;;5027425;28;20258;-75
2022/01/13 09:48:57;;;;;;;6.80;6.20;;;22.30;41.10;;;;;;5011461;28;20292;-76
2022/01/13 09:51:27;;;;;;;6.80;6.20;;;22.30;41.10;;;;;;4979250;28;20204;-75
2022/01/13 09:53:53;;;;;;;7.22;6.53;;;22.30;41.10;;;;;;4995385;28;20204;-75
2022/01/13 09:56:19;;;;;;;7.68;6.97;;;22.30;41.00;;;;;;5011652;28;20246;-75
2022/01/13 09:58:45;;;;;;;6.90;6.20;;;22.30;41.20;;;;;;5015230;28;20319;-75
2022/01/13 10:01:13;;;;;;;7.68;6.88;;;22.30;41.20;;;;;;5003514;28;20196;-75
2022/01/13 10:03:39;;;;;;;7.53;6.68;;;22.30;41.20;;;;;;5011536;28;20223;-72
2022/01/13 10:06:14;;;;;;;7.32;6.63;;;22.30;41.20;;;;;;5011494;28;20205;-75
2022/01/13 10:08:45;;;;;;;6.97;6.32;;;22.30;41.20;;;;;;5011853;28;20275;-75
2022/01/13 10:11:54;;;;;;;6.80;6.20;;;22.30;41.20;;;;;;4987286;28;20220;-75
2022/01/13 10:16:58;;;;;;;5.78;5.28;;;22.30;41.30;;;;;;5011800;28;20188;-76
2022/01/13 10:19:33;;;;;;;6.32;5.72;;;22.30;41.40;;;;;;5011336;28;20193;-75
2022/01/13 10:22:07;;;;;;;6.35;5.75;;;22.30;41.40;;;;;;4978829;28;20222;-76
2022/01/13 10:24:36;;;;;;;6.32;5.72;;;22.30;41.40;;;;;;5007250;28;20362;-75
2022/01/13 10:27:15;;;;;;;6.13;5.53;;;22.30;41.40;;;;;;5031357;28;20287;-74
2022/01/13 10:30:15;;;;;;;7.43;5.68;;;22.30;41.50;;;;;;5028638;28;20176;-75
2022/01/13 10:32:45;;;;;;;5.57;5.07;;;22.40;41.60;;;;;;4992029;28;20248;-75
2022/01/13 10:35:18;;;;;;;6.25;5.65;;;22.40;41.60;;;;;;4975254;28;20190;-75
2022/01/13 10:37:58;;;;;;;5.85;5.35;;;22.40;41.60;;;;;;4999357;28;20216;-75
2022/01/13 10:40:30;;;;;;;5.75;5.18;;;22.40;41.60;;;;;;5002919;28;20588;-75
2022/01/13 10:45:41;;;;;;;5.65;4.78;;;22.30;41.60;;;;;;4995704;28;20707;-75
2022/01/13 10:48:16;;;;;;;5.68;5.10;;;22.40;43.20;;;;;;4994939;28;20280;-75
2022/01/13 10:51:04;;;;;;;5.57;5.07;;;22.50;42.60;;;;;;5010783;28;20195;-75
2022/01/13 10:53:33;;;;;;;5.38;4.88;;;22.40;43.10;;;;;;5010214;28;20298;-74
2022/01/13 10:56:04;;;;;;;5.70;5.10;;;22.50;42.90;;;;;;5010631;28;20192;-75
2022/01/13 10:58:41;;;;;;;5.40;4.90;;;22.40;42.80;;;;;;4978329;28;20252;-76
2022/01/13 11:01:14;;;;;;;5.28;4.78;;;22.50;42.80;;;;;;5010620;28;20239;-76
2022/01/13 11:03:43;;;;;;;4.85;4.30;;;22.50;42.80;;;;;;5010280;28;20227;-76
2022/01/13 11:06:12;;;;;;;4.63;4.22;;;22.50;42.70;;;;;;4978026;28;20300;-75
2022/01/13 11:08:47;;;;;;;4.28;3.88;;;22.50;42.70;;;;;;4995053;28;20192;-76
2022/01/13 11:11:21;;;;;;;5.97;4.78;;;22.50;42.60;;;;;;5011664;28;20184;-76
2022/01/13 11:14:03;;;;;;;4.53;4.13;;;22.50;42.50;;;;;;4996638;28;20291;-75
2022/01/13 11:16:30;;;;;;;5.03;4.57;;;22.50;42.60;;;;;;5027179;28;20205;-76
2022/01/13 11:18:58;;;;;;;4.80;4.30;;;22.50;42.60;;;;;;5010242;28;20188;-76
2022/01/13 11:21:26;;;;;;;5.53;4.60;;;22.50;42.60;;;;;;5015166;28;20197;-76
2022/01/13 11:23:54;;;;;;;4.70;4.30;;;22.50;42.50;;;;;;4995270;28;20209;-74
2022/01/13 11:26:26;;;;;;;4.90;4.40;;;22.50;42.50;;;;;;4992688;28;20299;-75
2022/01/13 11:28:57;;;;;;;5.07;4.57;;;22.50;42.50;;;;;;5010585;28;20188;-74
2022/01/13 11:31:24;;;;;;;4.47;4.07;;;22.50;42.60;;;;;;5009771;28;20191;-77
2022/01/13 11:33:50;;;;;;;5.85;4.28;;;22.50;42.50;;;;;;4993955;28;20252;-75
2022/01/13 11:36:18;;;;;;;5.43;4.13;;;22.50;42.50;;;;;;4995384;28;20284;-76
2022/01/13 11:39:00;;;;;;;5.78;4.18;;;22.50;42.50;;;;;;5010403;28;20188;-77
2022/01/13 11:41:26;;;;;;;5.43;3.92;;;22.50;42.90;;;;;;5010302;28;20283;-76
2022/01/13 11:43:53;;;;;;;4.60;4.18;;;22.50;42.80;;;;;;5010798;28;20247;-77
2022/01/13 11:46:27;;;;;;;4.95;4.20;;;22.60;42.80;;;;;;4993297;28;20220;-77
2022/01/13 11:49:20;;;;;;;4.72;4.20;;;22.60;42.80;;;;;;4977660;28;20216;-77
2022/01/13 11:51:59;;;;;;;5.15;3.95;;;22.60;42.80;;;;;;5009750;28;20173;-77
2022/01/13 11:54:32;;;;;;;6.47;5.18;;;22.50;42.80;;;;;;4997698;28;20294;-77
2022/01/13 11:57:21;;;;;;;8.27;4.88;;;22.60;43.10;;;;;;5029166;28;20198;-76
2022/01/13 11:59:56;;;;;;;5.22;4.30;;;22.60;43.00;;;;;;4996261;28;20180;-74
2022/01/13 12:02:26;;;;;;;4.38;3.97;;;22.60;43.10;;;;;;5009896;28;20185;-76
2022/01/13 12:05:21;;;;;;;4.25;3.65;;;22.60;43.00;;;;;;5009072;28;20216;-75
2022/01/13 12:07:56;;;;;;;6.85;4.18;;;22.50;42.80;;;;;;4993430;28;20256;-75
2022/01/13 12:10:37;;;;;;;6.68;4.43;;;22.60;42.80;;;;;;5005957;28;20189;-76
2022/01/13 12:13:28;;;;;;;7.57;4.70;;;22.60;42.70;;;;;;4993931;28;20219;-75
2022/01/13 12:15:56;;;;;;;8.50;4.97;;;22.60;42.70;;;;;;4983188;28;20222;-75
2022/01/13 12:19:02;;;;;;;6.68;5.03;;;22.60;42.70;;;;;;5000860;28;20221;-75
2022/01/13 12:21:41;;;;;;;5.47;4.25;;;22.60;42.80;;;;;;4976440;28;20213;-75
2022/01/13 12:24:09;;;;;;;6.10;4.00;;;22.60;42.70;;;;;;4992591;28;20216;-75
2022/01/13 12:26:47;;;;;;;6.70;3.70;;;22.60;42.70;;;;;;4993942;28;20213;-76
2022/01/13 12:29:19;;;;;;;7.00;4.32;;;22.60;42.70;;;;;;4976532;28;20192;-76
2022/01/13 12:32:03;;;;;;;6.30;4.80;;;22.60;42.70;;;;;;5007628;28;20197;-76
2022/01/13 12:34:28;;;;;;;5.32;4.05;;;22.60;42.70;;;;;;4992371;28;20201;-75
2022/01/13 12:37:20;;;;;;;6.88;4.82;;;22.60;42.80;;;;;;4995424;28;20678;-75
2022/01/13 12:40:03;;;;;;;5.25;4.07;;;22.60;42.80;;;;;;4995328;28;20195;-73
2022/01/13 12:42:41;;;;;;;4.95;4.07;;;22.60;42.60;;;;;;4993663;28;20629;-76
2022/01/13 12:45:28;;;;;;;4.90;3.90;;;22.60;42.60;;;;;;4975815;28;20216;-75
2022/01/13 12:48:09;;;;;;;5.07;4.55;;;22.60;42.50;;;;;;5008813;28;20238;-75
2022/01/13 12:50:47;;;;;;;6.38;4.57;;;22.60;42.60;;;;;;5008282;28;20235;-75
2022/01/13 12:53:25;;;;;;;8.30;4.45;;;22.60;42.60;;;;;;5000434;28;20307;-75
2022/01/13 12:56:18;;;;;;;5.25;4.20;;;22.60;42.70;;;;;;4983521;28;20257;-76
2022/01/13 12:58:48;;;;;;;6.13;4.03;;;22.60;42.70;;;;;;5007191;28;20193;-75
2022/01/13 13:01:21;;;;;;;5.20;3.63;;;22.60;42.60;;;;;;4993272;28;20192;-75
2022/01/13 13:04:09;;;;;;;5.18;3.97;;;22.60;43.10;;;;;;4976096;28;20694;-76
2022/01/13 13:06:40;;;;;;;5.88;3.95;;;22.60;43.00;;;;;;5011911;28;20208;-76
2022/01/13 13:09:20;;;;;;;6.38;4.15;;;22.60;42.90;;;;;;4995357;28;20207;-75
2022/01/13 13:11:49;;;;;;;7.45;4.13;;;22.60;43.70;;;;;;4979049;28;20181;-75
2022/01/13 13:17:29;;;;;;;4.20;3.28;;;22.60;43.60;;;;;;5008213;28;20691;-75
2022/01/13 13:19:55;;;;;;;5.13;3.50;;;22.70;43.50;;;;;;4975594;28;20195;-76
2022/01/13 13:22:20;;;;;;;4.35;3.60;;;22.70;43.60;;;;;;4991833;28;20188;-76
2022/01/13 13:27:29;;;;;;;4.05;3.33;;;22.70;43.40;;;;;;4970226;28;20225;-71
2022/01/13 13:29:55;;;;;;;5.43;3.70;;;22.70;43.40;;;;;;4935781;29;20194;-71
2022/01/13 13:32:21;;;;;;;6.03;3.47;;;22.70;43.80;;;;;;4936238;29;20186;-71
2022/01/13 13:34:47;;;;;;;4.63;3.33;;;22.70;43.80;;;;;;4935985;29;20261;-71
2022/01/13 13:37:14;;;;;;;3.80;3.40;;;22.70;43.80;;;;;;4936169;28;20186;-71